Time;durP1;ratioP1;P1;durP2;ratioP2;P2;SDS_P1;SDS_P2;PMS_P1;PMS_P2;Temp;Humidity;BMP_temperature;BMP_pressure;BME280_temperature;BME280_humidity;BME280_pressure;Samples;Min_cycle;Max_cycle;Signal;HPM_P1;HPM_P2
2021/09/10 00:00:52;;;;;;;;;2.33;1.67;;;;;;;;5075125;28;45475;-81
2021/09/10 00:03:17;;;;;;;;;4.00;2.00;;;;;;;;5063776;28;45378;-81
2021/09/10 00:05:42;;;;;;;;;3.75;2.75;;;;;;;;5072625;28;45402;-81
2021/09/10 00:08:07;;;;;;;;;2.00;2.00;;;;;;;;5067208;28;45358;-81
2021/09/10 00:10:33;;;;;;;;;2.00;2.00;;;;;;;;5069179;28;47010;-81
2021/09/10 00:12:58;;;;;;;;;2.50;2.00;;;;;;;;5061950;28;45161;-81
2021/09/10 00:15:23;;;;;;;;;3.50;2.75;;;;;;;;5061813;28;45277;-81
2021/09/10 00:17:49;;;;;;;;;4.00;1.50;;;;;;;;5072994;28;45473;-81
2021/09/10 00:20:14;;;;;;;;;2.50;2.50;;;;;;;;5081296;28;45220;-81
2021/09/10 00:22:39;;;;;;;;;3.00;3.00;;;;;;;;5073942;28;45243;-81
2021/09/10 00:25:05;;;;;;;;;3.00;2.00;;;;;;;;5075435;28;45272;-81
2021/09/10 00:27:30;;;;;;;;;3.50;2.25;;;;;;;;5072117;28;45415;-81
2021/09/10 00:29:55;;;;;;;;;2.00;2.00;;;;;;;;5080473;28;46411;-81
2021/09/10 00:32:20;;;;;;;;;1.33;1.33;;;;;;;;5065734;28;45355;-81
2021/09/10 00:34:46;;;;;;;;;3.00;3.00;;;;;;;;5076877;28;45614;-81
2021/09/10 00:37:11;;;;;;;;;2.33;1.67;;;;;;;;5069906;28;45346;-81
2021/09/10 00:39:36;;;;;;;;;3.33;2.00;;;;;;;;5073107;28;45354;-81
2021/09/10 00:42:01;;;;;;;;;3.00;2.00;;;;;;;;5071607;28;45550;-81
2021/09/10 00:44:27;;;;;;;;;1.75;1.75;;;;;;;;5071269;28;45412;-81
2021/09/10 00:46:52;;;;;;;;;2.25;2.00;;;;;;;;5075580;28;45423;-81
2021/09/10 00:49:17;;;;;;;;;2.00;2.00;;;;;;;;5066143;28;45639;-81
2021/09/10 00:51:43;;;;;;;;;2.25;2.25;;;;;;;;5066651;28;45425;-81
2021/09/10 00:54:08;;;;;;;;;3.75;3.00;;;;;;;;5074978;28;45393;-81
2021/09/10 00:56:34;;;;;;;;;2.75;2.75;;;;;;;;5073971;28;45421;-81
2021/09/10 00:59:04;;;;;;;;;1.33;1.33;;;;;;;;5074257;28;45385;-82
2021/09/10 01:01:29;;;;;;;;;2.25;2.00;;;;;;;;5075266;28;45424;-81
2021/09/10 01:03:55;;;;;;;;;2.25;2.25;;;;;;;;5071517;28;45379;-81
2021/09/10 01:06:21;;;;;;;;;3.00;3.00;;;;;;;;5066285;28;45343;-81
2021/09/10 01:08:48;;;;;;;;;2.00;2.00;;;;;;;;5073983;28;48287;-81
2021/09/10 01:11:14;;;;;;;;;3.00;1.50;;;;;;;;5075654;28;45690;-81
2021/09/10 01:13:39;;;;;;;;;3.00;3.00;;;;;;;;5080865;28;45411;-81
2021/09/10 01:16:05;;;;;;;;;3.75;2.00;;;;;;;;5073977;28;45630;-81
2021/09/10 01:18:30;;;;;;;;;3.00;3.00;;;;;;;;5064806;28;47129;-81
2021/09/10 01:20:55;;;;;;;;;2.25;2.25;;;;;;;;5067667;28;45323;-81
2021/09/10 01:23:20;;;;;;;;;2.67;2.67;;;;;;;;5070457;28;45330;-81
2021/09/10 01:25:46;;;;;;;;;4.33;2.00;;;;;;;;5073921;28;45433;-81
2021/09/10 01:28:11;;;;;;;;;3.00;1.50;;;;;;;;5068604;28;45492;-81
2021/09/10 01:30:37;;;;;;;;;2.00;2.00;;;;;;;;5072828;28;45429;-81
2021/09/10 01:33:04;;;;;;;;;3.00;3.00;;;;;;;;5068034;28;45441;-81
2021/09/10 01:35:29;;;;;;;;;2.75;2.50;;;;;;;;5081455;28;45503;-81
2021/09/10 01:37:55;;;;;;;;;3.00;3.00;;;;;;;;5066768;28;45359;-81
2021/09/10 01:40:20;;;;;;;;;3.25;3.00;;;;;;;;5073487;28;45338;-81
2021/09/10 01:42:46;;;;;;;;;2.75;2.75;;;;;;;;5067146;28;45541;-81
2021/09/10 01:45:12;;;;;;;;;3.75;3.75;;;;;;;;5080843;28;45302;-82
2021/09/10 01:47:38;;;;;;;;;2.50;2.00;;;;;;;;5066429;28;46917;-81
2021/09/10 01:50:04;;;;;;;;;2.25;2.00;;;;;;;;5081000;28;45450;-81
2021/09/10 01:52:29;;;;;;;;;2.00;2.00;;;;;;;;5072253;28;45285;-81
2021/09/10 01:54:54;;;;;;;;;2.00;2.00;;;;;;;;5074564;28;46227;-81
2021/09/10 01:57:19;;;;;;;;;3.00;3.00;;;;;;;;5067013;28;46321;-81
2021/09/10 01:59:46;;;;;;;;;2.33;2.33;;;;;;;;5072958;28;45417;-81
2021/09/10 02:02:11;;;;;;;;;4.00;1.75;;;;;;;;5074113;28;45447;-81
2021/09/10 02:04:36;;;;;;;;;2.00;2.00;;;;;;;;5061786;28;45482;-81
2021/09/10 02:07:02;;;;;;;;;3.00;3.00;;;;;;;;5070722;28;46319;-81
2021/09/10 02:09:27;;;;;;;;;3.50;3.25;;;;;;;;5065795;28;45248;-81
2021/09/10 02:11:52;;;;;;;;;3.00;3.00;;;;;;;;5063248;28;45561;-81
2021/09/10 02:14:18;;;;;;;;;2.00;2.00;;;;;;;;5069510;28;45204;-81
2021/09/10 02:16:43;;;;;;;;;4.25;4.25;;;;;;;;5086622;28;45292;-81
2021/09/10 02:19:09;;;;;;;;;8.75;3.00;;;;;;;;5086754;28;44728;-81
2021/09/10 02:21:35;;;;;;;;;3.75;3.75;;;;;;;;5076467;28;45487;-82
2021/09/10 02:24:00;;;;;;;;;3.50;3.00;;;;;;;;5069542;28;45300;-81
2021/09/10 02:26:25;;;;;;;;;4.00;2.33;;;;;;;;5074500;28;45521;-81
2021/09/10 02:28:50;;;;;;;;;3.00;3.00;;;;;;;;5068905;28;45224;-81
2021/09/10 02:31:16;;;;;;;;;3.00;3.00;;;;;;;;5073863;28;45375;-81
2021/09/10 02:33:41;;;;;;;;;5.00;3.67;;;;;;;;5060721;28;45338;-81
2021/09/10 02:36:06;;;;;;;;;2.00;2.00;;;;;;;;5072306;28;45405;-81
2021/09/10 02:38:31;;;;;;;;;3.33;2.33;;;;;;;;5062156;28;45351;-81
2021/09/10 02:40:57;;;;;;;;;5.00;3.00;;;;;;;;5071003;28;45330;-81
2021/09/10 02:43:22;;;;;;;;;3.00;3.00;;;;;;;;5070013;28;45448;-81
2021/09/10 02:45:48;;;;;;;;;4.33;3.33;;;;;;;;5078361;28;46030;-82
2021/09/10 02:48:13;;;;;;;;;3.25;2.00;;;;;;;;5067080;28;45381;-81
2021/09/10 02:50:38;;;;;;;;;3.67;3.00;;;;;;;;5063960;28;45787;-81
2021/09/10 02:53:03;;;;;;;;;5.00;3.00;;;;;;;;5068678;28;45478;-81
2021/09/10 02:55:29;;;;;;;;;4.00;3.00;;;;;;;;5076796;28;46511;-82
2021/09/10 02:57:54;;;;;;;;;5.25;3.00;;;;;;;;5068024;28;46091;-82
2021/09/10 03:00:19;;;;;;;;;3.00;3.00;;;;;;;;5075898;28;45535;-81
2021/09/10 03:02:45;;;;;;;;;2.50;2.50;;;;;;;;5065729;28;45657;-81
2021/09/10 03:05:10;;;;;;;;;4.25;3.25;;;;;;;;5072543;28;46210;-81
2021/09/10 03:07:35;;;;;;;;;3.50;3.00;;;;;;;;5071350;28;45370;-82
2021/09/10 03:10:01;;;;;;;;;2.75;2.75;;;;;;;;5070787;28;45392;-81
2021/09/10 03:12:26;;;;;;;;;5.00;4.75;;;;;;;;5073042;28;45385;-81
2021/09/10 03:14:51;;;;;;;;;4.00;3.33;;;;;;;;5079895;27;46107;-81
2021/09/10 03:17:17;;;;;;;;;3.75;3.00;;;;;;;;5074863;28;45446;-81
2021/09/10 03:19:43;;;;;;;;;3.00;3.00;;;;;;;;5076817;28;45419;-81
2021/09/10 03:22:08;;;;;;;;;4.00;3.50;;;;;;;;5067812;28;45323;-81
2021/09/10 03:24:33;;;;;;;;;4.75;3.25;;;;;;;;5065615;28;47986;-81
2021/09/10 03:26:58;;;;;;;;;4.00;3.00;;;;;;;;5069804;28;45271;-81
2021/09/10 03:29:24;;;;;;;;;3.00;3.00;;;;;;;;5063061;28;45405;-81
2021/09/10 03:31:49;;;;;;;;;5.00;4.00;;;;;;;;5070117;28;45469;-81
2021/09/10 03:34:14;;;;;;;;;5.00;3.00;;;;;;;;5068322;28;47755;-81
2021/09/10 03:36:40;;;;;;;;;4.25;3.00;;;;;;;;5070046;28;45359;-81
2021/09/10 03:39:05;;;;;;;;;5.00;3.75;;;;;;;;5069834;28;45455;-80
2021/09/10 03:41:30;;;;;;;;;6.00;2.67;;;;;;;;5075788;28;45358;-80
2021/09/10 03:43:55;;;;;;;;;5.67;5.00;;;;;;;;5070425;28;46293;-80
2021/09/10 03:46:21;;;;;;;;;2.75;2.75;;;;;;;;5072790;28;46678;-81
2021/09/10 03:48:47;;;;;;;;;5.00;4.00;;;;;;;;5060664;28;46647;-81
2021/09/10 03:51:12;;;;;;;;;6.00;5.25;;;;;;;;5061742;28;45600;-80
2021/09/10 03:53:38;;;;;;;;;6.00;5.00;;;;;;;;5059079;28;45382;-80
2021/09/10 03:56:03;;;;;;;;;5.75;5.00;;;;;;;;5064047;28;45791;-80
2021/09/10 03:58:28;;;;;;;;;5.00;5.00;;;;;;;;5067263;28;45394;-80
2021/09/10 04:00:54;;;;;;;;;5.67;5.00;;;;;;;;5077109;28;45616;-80
2021/09/10 04:03:19;;;;;;;;;7.00;5.00;;;;;;;;5065641;28;46684;-82
2021/09/10 04:05:44;;;;;;;;;5.75;5.75;;;;;;;;5070042;28;45417;-83
2021/09/10 04:08:10;;;;;;;;;5.75;5.00;;;;;;;;5064416;28;45378;-83
2021/09/10 04:10:35;;;;;;;;;5.75;5.75;;;;;;;;5072809;28;45346;-83
2021/09/10 04:13:00;;;;;;;;;5.50;5.25;;;;;;;;5070744;28;46942;-83
2021/09/10 04:15:26;;;;;;;;;9.00;6.67;;;;;;;;5077392;28;45464;-83
2021/09/10 04:17:52;;;;;;;;;4.25;4.25;;;;;;;;5066444;28;45438;-83
2021/09/10 04:20:17;;;;;;;;;10.00;8.00;;;;;;;;5073627;28;45419;-83
2021/09/10 04:22:42;;;;;;;;;7.00;7.00;;;;;;;;5061925;28;45477;-83
2021/09/10 04:25:08;;;;;;;;;4.00;4.00;;;;;;;;5067808;28;45337;-83
2021/09/10 04:27:33;;;;;;;;;5.25;5.25;;;;;;;;5071223;28;45421;-83
2021/09/10 04:29:59;;;;;;;;;6.25;6.25;;;;;;;;5069588;28;45260;-82
2021/09/10 04:32:24;;;;;;;;;11.00;6.00;;;;;;;;5072171;28;47432;-83
2021/09/10 04:34:49;;;;;;;;;11.25;5.50;;;;;;;;5074370;28;45345;-83
2021/09/10 04:37:15;;;;;;;;;8.00;5.00;;;;;;;;5069695;28;45410;-83
2021/09/10 04:39:40;;;;;;;;;6.50;5.50;;;;;;;;5068587;28;45542;-83
2021/09/10 04:42:06;;;;;;;;;7.50;5.25;;;;;;;;5067891;28;46243;-83
2021/09/10 04:44:31;;;;;;;;;6.00;5.50;;;;;;;;5068669;28;45238;-83
2021/09/10 04:46:57;;;;;;;;;10.00;6.50;;;;;;;;5078115;28;45393;-83
2021/09/10 04:49:22;;;;;;;;;5.00;5.00;;;;;;;;5097443;28;44926;-82
2021/09/10 04:51:47;;;;;;;;;8.50;5.25;;;;;;;;5074855;28;47029;-83
2021/09/10 04:54:15;;;;;;;;;6.75;5.00;;;;;;;;5067136;28;45827;-83
2021/09/10 04:56:41;;;;;;;;;3.25;3.25;;;;;;;;5071100;28;45744;-83
2021/09/10 04:59:06;;;;;;;;;5.25;5.25;;;;;;;;5061994;28;45750;-83
2021/09/10 05:01:32;;;;;;;;;6.75;4.25;;;;;;;;5067621;28;46195;-83
2021/09/10 05:03:57;;;;;;;;;8.00;6.00;;;;;;;;5068634;28;45310;-83
2021/09/10 05:06:22;;;;;;;;;7.00;5.75;;;;;;;;5062195;28;45627;-84
2021/09/10 05:08:48;;;;;;;;;9.00;6.00;;;;;;;;5078332;28;45401;-83
2021/09/10 05:11:13;;;;;;;;;5.00;4.00;;;;;;;;5076948;28;47551;-84
2021/09/10 05:13:38;;;;;;;;;4.75;4.00;;;;;;;;5073804;28;45327;-84
2021/09/10 05:16:04;;;;;;;;;5.00;5.00;;;;;;;;5078119;28;45275;-82
2021/09/10 05:18:29;;;;;;;;;9.00;6.00;;;;;;;;5064907;28;45429;-82
2021/09/10 05:20:54;;;;;;;;;6.00;4.00;;;;;;;;5070901;28;48003;-82
2021/09/10 05:23:19;;;;;;;;;8.00;6.50;;;;;;;;5066578;28;45354;-82
2021/09/10 05:25:45;;;;;;;;;7.00;6.67;;;;;;;;5064437;27;45447;-82
2021/09/10 05:28:10;;;;;;;;;6.00;6.00;;;;;;;;5063686;28;45539;-81
2021/09/10 05:30:35;;;;;;;;;6.67;5.00;;;;;;;;5065374;28;48307;-82
2021/09/10 05:33:00;;;;;;;;;5.75;5.50;;;;;;;;5062667;28;45371;-83
2021/09/10 05:35:26;;;;;;;;;5.00;4.33;;;;;;;;5063265;28;45567;-82
2021/09/10 05:37:51;;;;;;;;;7.25;5.00;;;;;;;;5067241;28;46207;-83
2021/09/10 05:40:16;;;;;;;;;5.00;5.00;;;;;;;;5077009;28;45464;-82
2021/09/10 05:42:42;;;;;;;;;6.00;5.25;;;;;;;;5075446;28;45367;-82
2021/09/10 05:45:07;;;;;;;;;8.00;5.75;;;;;;;;5078774;28;45383;-82
2021/09/10 05:47:33;;;;;;;;;6.25;6.25;;;;;;;;5077836;28;45390;-81
2021/09/10 05:49:58;;;;;;;;;6.33;3.00;;;;;;;;5070609;28;46945;-81
2021/09/10 05:52:23;;;;;;;;;7.75;4.50;;;;;;;;5066378;28;45496;-80
2021/09/10 05:54:48;;;;;;;;;11.00;6.00;;;;;;;;5075563;28;45535;-82
2021/09/10 05:57:13;;;;;;;;;4.67;4.67;;;;;;;;5073265;27;45511;-81
2021/09/10 05:59:39;;;;;;;;;7.00;5.00;;;;;;;;5071827;27;46285;-81
2021/09/10 06:02:04;;;;;;;;;5.50;5.50;;;;;;;;5069091;28;45518;-81
2021/09/10 06:04:29;;;;;;;;;5.00;5.00;;;;;;;;5077186;28;45437;-81
2021/09/10 06:06:55;;;;;;;;;8.75;5.50;;;;;;;;5073685;27;45433;-82
2021/09/10 06:09:20;;;;;;;;;5.25;5.25;;;;;;;;5073595;28;46465;-82
2021/09/10 06:11:45;;;;;;;;;6.33;6.00;;;;;;;;5068134;28;45425;-82
2021/09/10 06:14:10;;;;;;;;;6.00;4.00;;;;;;;;5076537;27;45441;-81
2021/09/10 06:16:35;;;;;;;;;5.00;5.00;;;;;;;;5071817;27;45459;-82
2021/09/10 06:19:01;;;;;;;;;6.50;5.50;;;;;;;;5072894;28;45638;-82
2021/09/10 06:21:26;;;;;;;;;4.25;3.50;;;;;;;;5071107;28;45323;-82
2021/09/10 06:23:52;;;;;;;;;4.00;4.00;;;;;;;;5074090;28;45451;-82
2021/09/10 06:26:18;;;;;;;;;5.75;5.75;;;;;;;;5069616;28;45551;-82
2021/09/10 06:28:44;;;;;;;;;6.50;6.50;;;;;;;;5066436;28;46105;-82
2021/09/10 06:31:09;;;;;;;;;7.75;7.00;;;;;;;;5077154;27;45432;-81
2021/09/10 06:33:34;;;;;;;;;5.25;4.75;;;;;;;;5070421;28;45362;-81
2021/09/10 06:35:59;;;;;;;;;7.00;5.25;;;;;;;;5072369;28;45833;-82
2021/09/10 06:38:25;;;;;;;;;9.67;5.67;;;;;;;;5066021;27;46413;-82
2021/09/10 06:40:50;;;;;;;;;5.00;5.00;;;;;;;;5070986;28;45414;-82
2021/09/10 06:43:15;;;;;;;;;6.67;6.00;;;;;;;;5070734;27;45435;-81
2021/09/10 06:45:43;;;;;;;;;6.33;5.00;;;;;;;;5073580;28;45735;-81
2021/09/10 06:48:09;;;;;;;;;5.50;5.50;;;;;;;;5077391;27;46137;-83
2021/09/10 06:50:34;;;;;;;;;8.00;6.75;;;;;;;;5075988;28;46349;-82
2021/09/10 06:52:59;;;;;;;;;6.00;6.00;;;;;;;;5074415;28;45459;-81
2021/09/10 06:55:24;;;;;;;;;7.00;6.00;;;;;;;;5075996;28;45412;-81
2021/09/10 06:57:50;;;;;;;;;5.33;5.33;;;;;;;;5072158;28;46196;-82
2021/09/10 07:00:15;;;;;;;;;6.00;6.00;;;;;;;;5074881;28;45422;-81
2021/09/10 07:02:40;;;;;;;;;9.50;5.50;;;;;;;;5071764;28;45538;-81
2021/09/10 07:05:06;;;;;;;;;8.75;6.00;;;;;;;;5076371;27;45586;-81
2021/09/10 07:07:31;;;;;;;;;7.50;6.50;;;;;;;;5075524;28;47401;-82
2021/09/10 07:09:57;;;;;;;;;7.75;6.00;;;;;;;;5069387;27;45765;-82
2021/09/10 07:12:23;;;;;;;;;9.75;7.25;;;;;;;;5075011;27;45404;-82
2021/09/10 07:14:48;;;;;;;;;7.00;7.00;;;;;;;;5072488;28;45462;-81
2021/09/10 07:17:13;;;;;;;;;8.33;6.67;;;;;;;;5071063;28;45454;-81
2021/09/10 07:19:40;;;;;;;;;8.25;6.25;;;;;;;;5077119;27;45224;-81
2021/09/10 07:22:05;;;;;;;;;6.25;5.50;;;;;;;;5073686;28;45449;-80
2021/09/10 07:24:31;;;;;;;;;6.00;6.00;;;;;;;;5083806;28;46294;-81
2021/09/10 07:26:56;;;;;;;;;6.00;6.00;;;;;;;;5093235;27;47303;-81
2021/09/10 07:29:23;;;;;;;;;6.00;6.00;;;;;;;;5088722;27;45539;-81
2021/09/10 07:31:48;;;;;;;;;8.75;5.00;;;;;;;;5072439;27;45578;-81
2021/09/10 07:34:14;;;;;;;;;8.50;7.00;;;;;;;;5072486;28;45543;-81
2021/09/10 07:36:39;;;;;;;;;6.00;6.00;;;;;;;;5074252;27;45435;-81
2021/09/10 07:39:04;;;;;;;;;6.00;5.00;;;;;;;;5076529;28;45417;-81
2021/09/10 07:41:29;;;;;;;;;6.00;6.00;;;;;;;;5071656;28;45544;-81
2021/09/10 07:43:55;;;;;;;;;8.00;7.00;;;;;;;;5075514;27;45545;-81
2021/09/10 07:46:26;;;;;;;;;6.00;6.00;;;;;;;;5070498;27;46917;-81
2021/09/10 07:48:54;;;;;;;;;9.50;7.00;;;;;;;;5094347;28;44982;-81
2021/09/10 07:51:19;;;;;;;;;7.25;6.00;;;;;;;;5078590;28;45591;-82
2021/09/10 07:53:44;;;;;;;;;9.67;6.00;;;;;;;;5068927;28;45620;-82
2021/09/10 07:56:09;;;;;;;;;8.00;6.00;;;;;;;;5070061;28;48692;-82
2021/09/10 07:58:34;;;;;;;;;8.33;7.00;;;;;;;;5072781;28;46413;-82
2021/09/10 08:01:00;;;;;;;;;9.00;9.00;;;;;;;;5074976;28;45432;-79
2021/09/10 08:03:27;;;;;;;;;7.00;5.50;;;;;;;;5073619;28;45712;-79
2021/09/10 08:05:52;;;;;;;;;8.75;6.00;;;;;;;;5073009;28;46066;-80
2021/09/10 08:08:18;;;;;;;;;10.00;7.00;;;;;;;;5072513;28;45416;-80
2021/09/10 08:10:43;;;;;;;;;7.00;7.00;;;;;;;;5077770;28;45663;-81
2021/09/10 08:13:09;;;;;;;;;7.25;7.25;;;;;;;;5077933;27;45508;-81
2021/09/10 08:15:34;;;;;;;;;6.00;6.00;;;;;;;;5078808;28;47986;-82
2021/09/10 08:17:59;;;;;;;;;7.25;7.25;;;;;;;;5069124;28;45724;-82
2021/09/10 08:20:25;;;;;;;;;6.00;6.00;;;;;;;;5075820;27;45388;-81
2021/09/10 08:22:50;;;;;;;;;7.00;7.00;;;;;;;;5072624;28;45436;-81
2021/09/10 08:25:15;;;;;;;;;4.67;4.67;;;;;;;;5078161;28;45378;-81
2021/09/10 08:27:41;;;;;;;;;6.25;5.00;;;;;;;;5073293;27;45446;-81
2021/09/10 08:30:07;;;;;;;;;6.50;5.25;;;;;;;;5071589;28;45594;-81
2021/09/10 08:32:32;;;;;;;;;5.50;5.00;;;;;;;;5078036;28;45827;-81
2021/09/10 08:34:58;;;;;;;;;8.75;6.00;;;;;;;;5071891;27;47921;-81
2021/09/10 08:37:23;;;;;;;;;6.75;5.50;;;;;;;;5071249;28;45516;-81
2021/09/10 08:39:48;;;;;;;;;6.25;5.00;;;;;;;;5073277;28;45468;-80
2021/09/10 08:42:14;;;;;;;;;6.00;6.00;;;;;;;;5073386;28;45394;-81
2021/09/10 08:44:40;;;;;;;;;7.75;6.00;;;;;;;;5075649;28;45307;-82
2021/09/10 08:47:06;;;;;;;;;8.00;6.00;;;;;;;;5071845;28;45719;-82
2021/09/10 08:49:32;;;;;;;;;4.25;4.25;;;;;;;;5070031;27;45449;-82
2021/09/10 08:51:58;;;;;;;;;9.00;6.00;;;;;;;;5071404;28;45326;-81
2021/09/10 08:54:23;;;;;;;;;7.00;6.00;;;;;;;;5073526;27;45779;-82
2021/09/10 08:56:48;;;;;;;;;6.00;6.00;;;;;;;;5074319;27;45917;-82
2021/09/10 08:59:18;;;;;;;;;4.50;4.50;;;;;;;;5080987;28;45306;-82
2021/09/10 09:01:47;;;;;;;;;7.00;6.50;;;;;;;;5075804;28;45534;-82
2021/09/10 09:04:13;;;;;;;;;9.00;6.50;;;;;;;;5076723;28;46145;-82
2021/09/10 09:06:38;;;;;;;;;6.00;6.00;;;;;;;;5076645;28;45574;-81
2021/09/10 09:09:03;;;;;;;;;5.75;5.00;;;;;;;;5072011;28;45342;-82
2021/09/10 09:11:29;;;;;;;;;7.25;4.00;;;;;;;;5073617;27;45662;-82
2021/09/10 09:13:55;;;;;;;;;4.00;1.00;;;;;;;;5077612;28;46154;-82
2021/09/10 09:16:25;;;;;;;;;5.50;4.00;;;;;;;;5074636;28;45392;-82
2021/09/10 09:18:55;;;;;;;;;7.00;5.75;;;;;;;;5073461;28;45535;-82
2021/09/10 09:21:21;;;;;;;;;6.00;6.00;;;;;;;;5070503;28;45588;-82
2021/09/10 09:23:46;;;;;;;;;7.25;4.75;;;;;;;;5074387;28;47988;-82
2021/09/10 09:26:12;;;;;;;;;5.50;5.50;;;;;;;;5076523;27;45390;-82
2021/09/10 09:28:38;;;;;;;;;6.25;6.00;;;;;;;;5076247;28;45461;-82
2021/09/10 09:31:05;;;;;;;;;5.75;5.00;;;;;;;;5070608;28;45731;-82
2021/09/10 09:33:32;;;;;;;;;8.50;4.50;;;;;;;;5077745;27;45493;-82
2021/09/10 09:35:58;;;;;;;;;3.00;3.00;;;;;;;;5075301;28;45923;-81
2021/09/10 09:38:26;;;;;;;;;5.00;5.00;;;;;;;;5081427;27;45380;-82
2021/09/10 09:40:52;;;;;;;;;4.00;3.00;;;;;;;;5076333;27;45414;-82
2021/09/10 09:43:18;;;;;;;;;4.00;4.00;;;;;;;;5073430;27;45546;-82
2021/09/10 09:45:45;;;;;;;;;6.00;5.75;;;;;;;;5077696;27;45583;-82
2021/09/10 09:48:11;;;;;;;;;4.00;4.00;;;;;;;;5072793;28;45481;-81
2021/09/10 09:50:37;;;;;;;;;10.25;7.25;;;;;;;;5076321;28;45637;-82
2021/09/10 09:53:03;;;;;;;;;6.00;6.00;;;;;;;;5072453;28;46017;-81
2021/09/10 09:55:29;;;;;;;;;5.25;5.25;;;;;;;;5073563;28;45627;-81
2021/09/10 09:57:55;;;;;;;;;11.75;9.00;;;;;;;;5081032;28;45382;-81
2021/09/10 10:00:20;;;;;;;;;7.75;6.25;;;;;;;;5088630;28;45487;-82
2021/09/10 10:02:45;;;;;;;;;4.00;4.00;;;;;;;;5077747;28;46020;-81
2021/09/10 10:05:15;;;;;;;;;7.33;6.33;;;;;;;;5074230;28;45899;-81
2021/09/10 10:07:50;;;;;;;;;5.50;4.25;;;;;;;;5072520;28;45597;-81
2021/09/10 10:10:24;;;;;;;;;6.25;5.00;;;;;;;;5070812;28;45536;-81
2021/09/10 10:12:51;;;;;;;;;4.00;4.00;;;;;;;;5073666;28;46565;-81
2021/09/10 10:15:20;;;;;;;;;4.75;4.75;;;;;;;;5077522;28;46066;-81
2021/09/10 10:17:46;;;;;;;;;5.00;5.00;;;;;;;;5071896;28;45591;-81
2021/09/10 10:20:14;;;;;;;;;8.50;6.50;;;;;;;;5073685;28;45465;-81
2021/09/10 10:22:41;;;;;;;;;6.50;5.00;;;;;;;;5074452;27;48226;-81
2021/09/10 10:25:08;;;;;;;;;4.50;3.75;;;;;;;;5072095;28;45359;-80
2021/09/10 10:27:40;;;;;;;;;7.50;5.75;;;;;;;;5074889;27;45382;-81
2021/09/10 10:30:07;;;;;;;;;5.25;5.00;;;;;;;;5076643;28;45807;-81
2021/09/10 10:32:35;;;;;;;;;6.00;6.00;;;;;;;;5076676;27;47255;-81
2021/09/10 10:35:16;;;;;;;;;5.25;4.50;;;;;;;;5069369;27;45415;-81
2021/09/10 10:37:43;;;;;;;;;5.00;4.00;;;;;;;;5073373;28;45634;-81
2021/09/10 10:40:38;;;;;;;;;3.75;3.50;;;;;;;;5078058;28;45440;-81
2021/09/10 10:43:05;;;;;;;;;3.75;3.75;;;;;;;;5062035;27;45331;-81
2021/09/10 10:45:42;;;;;;;;;7.25;4.00;;;;;;;;5073978;28;45296;-80
2021/09/10 10:48:26;;;;;;;;;3.00;3.00;;;;;;;;5069232;27;45758;-81
2021/09/10 10:50:52;;;;;;;;;5.00;3.50;;;;;;;;5073247;27;45569;-82
2021/09/10 10:53:17;;;;;;;;;5.75;5.75;;;;;;;;5069010;28;45291;-81
2021/09/10 10:55:42;;;;;;;;;5.75;4.50;;;;;;;;5072598;28;45481;-82
2021/09/10 10:58:21;;;;;;;;;4.50;3.00;;;;;;;;5076036;28;45810;-82
2021/09/10 11:00:47;;;;;;;;;6.75;4.25;;;;;;;;5075741;28;45334;-82
2021/09/10 11:03:18;;;;;;;;;4.00;3.25;;;;;;;;5080347;28;45622;-81
2021/09/10 11:05:45;;;;;;;;;3.00;3.00;;;;;;;;5077107;28;45466;-81
2021/09/10 11:08:10;;;;;;;;;2.25;2.25;;;;;;;;5071661;28;45592;-81
2021/09/10 11:10:35;;;;;;;;;5.75;3.25;;;;;;;;5070456;27;45329;-81
2021/09/10 11:13:01;;;;;;;;;4.00;4.00;;;;;;;;5079011;28;45361;-82
2021/09/10 11:15:31;;;;;;;;;5.00;5.00;;;;;;;;5072634;28;45331;-82
2021/09/10 11:18:04;;;;;;;;;4.50;4.50;;;;;;;;5079883;28;45369;-83
2021/09/10 11:20:37;;;;;;;;;5.00;4.50;;;;;;;;5076970;27;44970;-80
2021/09/10 11:23:12;;;;;;;;;2.75;2.75;;;;;;;;5070328;28;46579;-79
2021/09/10 11:25:48;;;;;;;;;5.25;3.00;;;;;;;;5077273;28;45415;-80
2021/09/10 11:28:13;;;;;;;;;3.75;3.75;;;;;;;;5072853;28;44813;-80
2021/09/10 11:30:39;;;;;;;;;4.00;4.00;;;;;;;;5067487;28;45575;-79
2021/09/10 11:33:04;;;;;;;;;6.50;6.00;;;;;;;;5069343;28;45386;-78
2021/09/10 11:35:31;;;;;;;;;4.25;4.25;;;;;;;;5075576;28;45325;-77
2021/09/10 11:38:01;;;;;;;;;3.00;3.00;;;;;;;;5066498;28;46520;-77
2021/09/10 11:40:31;;;;;;;;;10.00;5.00;;;;;;;;5073764;28;45628;-79
2021/09/10 11:43:06;;;;;;;;;6.00;4.00;;;;;;;;5078448;28;46048;-79
2021/09/10 11:45:34;;;;;;;;;5.00;4.00;;;;;;;;5059338;28;45558;-78
2021/09/10 11:48:01;;;;;;;;;6.50;5.50;;;;;;;;5061436;28;45343;-78
2021/09/10 11:50:26;;;;;;;;;5.25;4.75;;;;;;;;5068931;28;45467;-79
2021/09/10 11:52:51;;;;;;;;;4.75;4.75;;;;;;;;5059016;28;45556;-79
2021/09/10 11:55:18;;;;;;;;;4.50;3.75;;;;;;;;5072620;28;45463;-80
2021/09/10 11:57:44;;;;;;;;;4.00;4.00;;;;;;;;5072478;28;45707;-82
2021/09/10 12:00:21;;;;;;;;;5.25;4.00;;;;;;;;5073135;28;45494;-80
2021/09/10 12:02:56;;;;;;;;;3.75;3.75;;;;;;;;5064628;27;47072;-81
2021/09/10 12:05:21;;;;;;;;;4.25;3.25;;;;;;;;5073232;28;45521;-80
2021/09/10 12:07:50;;;;;;;;;6.00;3.50;;;;;;;;5069858;28;45398;-81
2021/09/10 12:10:32;;;;;;;;;6.25;5.00;;;;;;;;5071961;28;45641;-80
2021/09/10 12:13:10;;;;;;;;;6.00;5.75;;;;;;;;5067338;28;45747;-80
2021/09/10 12:15:36;;;;;;;;;4.25;3.75;;;;;;;;5070574;28;45471;-83
2021/09/10 12:18:11;;;;;;;;;5.75;4.00;;;;;;;;5078987;28;45399;-80
2021/09/10 12:20:37;;;;;;;;;3.25;3.25;;;;;;;;5066250;27;45540;-79
2021/09/10 12:23:02;;;;;;;;;4.00;4.00;;;;;;;;5070938;28;45820;-79
2021/09/10 12:25:57;;;;;;;;;5.00;3.50;;;;;;;;5074596;28;45569;-79
2021/09/10 12:28:26;;;;;;;;;3.75;3.75;;;;;;;;5073583;28;45359;-79
2021/09/10 12:30:54;;;;;;;;;5.75;5.00;;;;;;;;5083229;28;44768;-79
2021/09/10 12:33:22;;;;;;;;;5.00;3.00;;;;;;;;5092400;28;46469;-79
2021/09/10 12:35:50;;;;;;;;;4.25;3.75;;;;;;;;5076796;28;45767;-80
2021/09/10 12:38:17;;;;;;;;;6.75;5.00;;;;;;;;5074426;27;45433;-79
2021/09/10 12:40:44;;;;;;;;;4.00;3.00;;;;;;;;5077974;27;45654;-79
2021/09/10 12:43:10;;;;;;;;;5.00;4.50;;;;;;;;5064268;28;46331;-80
2021/09/10 12:45:36;;;;;;;;;4.00;4.00;;;;;;;;5071798;28;45716;-80
2021/09/10 12:48:01;;;;;;;;;4.00;4.00;;;;;;;;5068323;27;45408;-80
2021/09/10 12:50:26;;;;;;;;;6.50;4.75;;;;;;;;5071554;28;45452;-81
2021/09/10 12:52:52;;;;;;;;;6.75;4.00;;;;;;;;5074132;28;45646;-80
2021/09/10 12:55:18;;;;;;;;;3.50;3.25;;;;;;;;5074299;28;45426;-80
2021/09/10 12:57:43;;;;;;;;;6.50;5.50;;;;;;;;5067084;27;45438;-80
2021/09/10 13:00:10;;;;;;;;;4.25;4.00;;;;;;;;5077084;27;45330;-82
2021/09/10 13:02:35;;;;;;;;;11.50;9.00;;;;;;;;5074302;28;46120;-81
2021/09/10 13:05:00;;;;;;;;;3.50;3.00;;;;;;;;5076849;27;45406;-83
2021/09/10 13:07:26;;;;;;;;;3.25;3.25;;;;;;;;5073980;28;45319;-83
2021/09/10 13:09:51;;;;;;;;;6.00;2.50;;;;;;;;5076742;28;45807;-82
2021/09/10 13:12:17;;;;;;;;;3.75;3.00;;;;;;;;5071715;28;45394;-82
2021/09/10 13:14:47;;;;;;;;;3.50;3.50;;;;;;;;5068536;28;46542;-84
2021/09/10 13:17:13;;;;;;;;;5.50;4.50;;;;;;;;5073478;28;45436;-83
2021/09/10 13:19:38;;;;;;;;;8.00;6.25;;;;;;;;5076641;27;45793;-82
2021/09/10 13:22:04;;;;;;;;;6.25;5.75;;;;;;;;5072818;28;46948;-82
2021/09/10 13:24:29;;;;;;;;;6.00;5.00;;;;;;;;5072706;28;45363;-83
2021/09/10 13:26:54;;;;;;;;;8.75;6.00;;;;;;;;5070278;28;45469;-80
2021/09/10 13:29:19;;;;;;;;;5.00;5.00;;;;;;;;5078573;28;45347;-80
2021/09/10 13:31:45;;;;;;;;;4.67;4.00;;;;;;;;5069461;28;45598;-78
2021/09/10 13:34:10;;;;;;;;;9.25;5.00;;;;;;;;5070694;28;45444;-80
2021/09/10 13:36:36;;;;;;;;;7.25;6.50;;;;;;;;5070771;28;45401;-79
2021/09/10 13:39:02;;;;;;;;;3.25;3.25;;;;;;;;5082123;28;45440;-79
2021/09/10 13:41:27;;;;;;;;;3.75;3.75;;;;;;;;5071427;28;46870;-79
2021/09/10 13:43:52;;;;;;;;;3.00;3.00;;;;;;;;5073235;28;45711;-79
2021/09/10 13:46:18;;;;;;;;;5.00;3.25;;;;;;;;5066789;28;45622;-79
2021/09/10 13:48:43;;;;;;;;;7.00;3.75;;;;;;;;5066731;28;45848;-78
2021/09/10 13:51:08;;;;;;;;;6.00;4.00;;;;;;;;5062738;28;47562;-78
2021/09/10 13:53:34;;;;;;;;;5.00;2.25;;;;;;;;5071779;28;45514;-79
2021/09/10 13:55:59;;;;;;;;;6.25;4.25;;;;;;;;5074940;28;45495;-78
2021/09/10 13:58:24;;;;;;;;;6.33;3.00;;;;;;;;5074992;28;45409;-78
2021/09/10 14:00:49;;;;;;;;;2.25;2.00;;;;;;;;5070645;28;45550;-79
2021/09/10 14:03:14;;;;;;;;;4.33;3.00;;;;;;;;5068199;28;45454;-79
2021/09/10 14:05:40;;;;;;;;;5.00;3.00;;;;;;;;5068370;28;45808;-79
2021/09/10 14:08:05;;;;;;;;;5.00;3.00;;;;;;;;5069819;28;45802;-79
2021/09/10 14:10:30;;;;;;;;;5.00;3.75;;;;;;;;5075154;28;46916;-78
2021/09/10 14:12:56;;;;;;;;;7.25;3.75;;;;;;;;5072970;28;45483;-80
2021/09/10 14:15:21;;;;;;;;;5.50;4.25;;;;;;;;5067588;28;45406;-79
2021/09/10 14:17:46;;;;;;;;;3.50;2.00;;;;;;;;5073367;28;45469;-78
2021/09/10 14:20:12;;;;;;;;;4.75;4.00;;;;;;;;5073059;28;46065;-79
2021/09/10 14:22:37;;;;;;;;;4.00;4.00;;;;;;;;5070621;28;45512;-79
2021/09/10 14:25:03;;;;;;;;;3.00;3.00;;;;;;;;5074279;28;45424;-78
2021/09/10 14:27:28;;;;;;;;;3.00;3.00;;;;;;;;5067223;28;46218;-78
2021/09/10 14:29:53;;;;;;;;;2.75;2.75;;;;;;;;5076634;27;45562;-79
2021/09/10 14:32:18;;;;;;;;;3.25;3.25;;;;;;;;5067942;28;45410;-78
2021/09/10 14:34:44;;;;;;;;;3.00;3.00;;;;;;;;5071706;28;45441;-78
2021/09/10 14:37:09;;;;;;;;;3.25;3.25;;;;;;;;5071201;28;45614;-79